Bowen, Queensland

9:00 PM AEST on August 31, 2015 (GMT +1000)
Whitsunday | | Change Station
CLOSE
Current Station
Airport
Location: Proserpine,
Elevation: 66 ft
Nearby Weather Stations

Elev 66 ft 20.49 °S, 148.55 °E | Updated 1 hour ago

Overcast
Overcast
70 °F
Feels Like 70 °F
N
6
Wind Variable Wind from ESE

Today
High -- | Low -- °F
--% Chance of Precip.
Yesterday
High -- | Low -- °F
Precip. -- in
6:17 AM 5:58 PM
Waning Gibbous, 96% visible
Pressure 30.01 in
Visibility 6.2 miles
Clouds Overcast 3000 ft
Dew Point 64 °F
Humidity 83%
Rainfall 0.00 in
Snow Depth Not available.
UV 0 out of 12
Pollen Not available.
Air Quality Not available.
Flu Activity Not available.
METAR YBPN 311000Z AUTO 12005KT 9999 // OVC030 21/18 Q1016
Pressure 30.01 in
Visibility 6.2 miles
Clouds Overcast 3000 ft
Dew Point 64 °F
Humidity 83%
Rainfall 0.00 in
Snow Depth Not available.
UV 0 out of 12
Pollen Not available.
Air Quality Not available.
Flu Activity Not available.
METAR YBPN 311000Z AUTO 12005KT 9999 // OVC030 21/18 Q1016

10-Day Weather Forecast

×

Almanac

Astronomy

Aug. 31, 2015 Rise Set
Actual Time
Civil Twilight
Nautical Twilight
Astronomical Twilight
Moon
Length of Visible Light
Length of Day
Tomorrow will be .
, % of the Moon is Illuminated

Today's Extremes

Country Highs Country Lows

Community

WunderPhotos

Upload Photos

1,851,217 photos uploaded!

WunderBlogs® & News

Nearby

Air Quality

  Air Quality AQ Index Pollutant
Not available.

Snow Depth

Station Depth Elevation

Earthquake Activity

City Distance Mag. Time & Date
Minimum magnitude displayed is 2.5.

Coastal Water Temperatures

Place Temperature

Stations

Nearby Weather Stations

Station Location Temp. Windchill Dew Point Humidity Wind Precip. Elev Updated Type